»·PEaware :: N53210 KLAX-KSAN

N53210 :: KLAX-KSAN

FLIGHT INFORMATION

Flight Status: Arrived
Operator: Privately registered:
United States
More flights under this callsign
Pilot: Anonymous 18558 (18558)
Aircraft: CESSNA 172 SKYHAWK
(C172)
More flights by this aircraft type
Origin: KLAX Los Angeles Intl
United States
Destination: KSAN San Diego Intl-Lindbergh
United States
More flights between these airports :: More routes between these airports
Route: +
File this flight plan on PilotEdge
Remarks:
Altitude:
(Current/Filed)
3,500ft
Speed:
(Current/Filed)
0kts
Departed: 16-Apr-18 08:10 AM
Arrived: 16-Apr-18 09:11 AM
Distance/Time
Traveled:
95nm/1:01
Distance/Time
To Go:
Arrived

Flight Plot

Page will automatically refresh every two minutes.


Map Options




Map Legend


Flown Route
Filed Route
Departure Airport
Arrival Airport
Navaid (VOR, NDB)
Fix

Horizontal Profiles

Position Reports

Time Latitude Longitude Heading Altitude Ground
Speed
16-Apr-18 07:57 33.933880 -118.389782 179 101ft 0kts
16-Apr-18 07:58 33.933880 -118.389782 179 101ft 0kts
16-Apr-18 07:59 33.934186 -118.389773 0 101ft 0kts
16-Apr-18 08:00 33.934186 -118.389773 0 101ft 0kts
16-Apr-18 08:01 33.934186 -118.389773 0 101ft 0kts
16-Apr-18 08:02 33.934186 -118.389773 0 101ft 0kts
16-Apr-18 08:03 33.934186 -118.389773 0 101ft 0kts
16-Apr-18 08:04 33.935298 -118.389530 53 101ft 12kts
16-Apr-18 08:05 33.936070 -118.383417 83 96ft 21kts
16-Apr-18 08:06 33.936483 -118.382686 343 96ft 0kts
16-Apr-18 08:07 33.936483 -118.382686 343 96ft 0kts
16-Apr-18 08:08 33.937052 -118.382935 326 96ft 16kts
16-Apr-18 08:09 33.935703 -118.402551 266 648ft 78kts
16-Apr-18 08:10 33.935139 -118.428619 268 1663ft 80kts
16-Apr-18 08:11 33.918742 -118.441667 183 2419ft 100kts
16-Apr-18 08:12 33.886823 -118.443571 184 2463ft 120kts
16-Apr-18 08:13 33.853080 -118.445722 181 2420ft 120kts
16-Apr-18 08:14 33.820226 -118.444570 154 2415ft 122kts
16-Apr-18 08:15 33.797940 -118.416482 131 2718ft 112kts
16-Apr-18 08:16 33.778546 -118.390680 132 3439ft 108kts
16-Apr-18 08:17 33.755745 -118.360077 133 3322ft 131kts
16-Apr-18 08:18 33.733046 -118.330587 131 3374ft 117kts
16-Apr-18 08:19 33.711366 -118.302053 134 3383ft 119kts
16-Apr-18 08:20 33.689645 -118.273071 132 3407ft 118kts
16-Apr-18 08:21 33.667437 -118.243612 131 3423ft 121kts
16-Apr-18 08:22 33.644414 -118.212318 130 3424ft 130kts
16-Apr-18 08:23 33.622039 -118.179106 110 3415ft 127kts
16-Apr-18 08:24 33.628228 -118.137753 72 3381ft 130kts
16-Apr-18 08:25 33.638871 -118.097248 93 3453ft 126kts
16-Apr-18 08:26 33.609249 -118.079667 169 3351ft 120kts
16-Apr-18 08:27 33.582339 -118.058662 139 3400ft 115kts
16-Apr-18 08:28 33.558217 -118.033279 137 3436ft 118kts
16-Apr-18 08:29 33.533709 -118.006603 127 3482ft 118kts
16-Apr-18 08:33 33.487973 -118.002964 108 3308ft 77kts
16-Apr-18 08:34 33.480638 -117.972912 101 3500ft 125kts
16-Apr-18 08:35 33.474745 -117.930770 97 3412ft 129kts
16-Apr-18 08:36 33.457610 -117.899444 152 3449ft 119kts
16-Apr-18 08:37 33.430892 -117.876200 139 3462ft 120kts
16-Apr-18 08:38 33.421398 -117.840598 87 3441ft 120kts
16-Apr-18 08:39 33.422023 -117.800240 85 3466ft 127kts
16-Apr-18 08:40 33.426435 -117.758691 81 3401ft 129kts
16-Apr-18 08:41 33.420075 -117.717688 104 3396ft 125kts
16-Apr-18 08:42 33.399397 -117.685972 138 3426ft 126kts
16-Apr-18 08:43 33.370045 -117.665924 147 3406ft 118kts
16-Apr-18 08:44 33.342796 -117.644118 144 3408ft 117kts
16-Apr-18 08:45 33.318497 -117.618119 133 3408ft 117kts
16-Apr-18 08:46 33.295880 -117.589967 133 3408ft 117kts
16-Apr-18 08:47 33.273246 -117.561811 133 3408ft 117kts
16-Apr-18 08:48 33.250675 -117.533731 133 3408ft 117kts
16-Apr-18 08:49 33.227877 -117.505360 133 3408ft 118kts
16-Apr-18 08:50 33.205019 -117.476912 133 3408ft 119kts
16-Apr-18 08:51 33.184095 -117.450908 135 3406ft 98kts
16-Apr-18 08:52 33.157518 -117.432107 150 3409ft 122kts
16-Apr-18 08:53 33.127313 -117.412436 153 3408ft 124kts
16-Apr-18 08:54 33.095945 -117.394677 154 3408ft 125kts
16-Apr-18 08:55 33.064596 -117.376934 153 3408ft 125kts
16-Apr-18 08:56 33.035850 -117.360702 154 3406ft 99kts
16-Apr-18 08:57 33.012531 -117.347505 154 3408ft 89kts
16-Apr-18 08:58 32.990341 -117.334923 154 3408ft 87kts
16-Apr-18 08:59 32.968246 -117.322380 154 3411ft 96kts
16-Apr-18 09:00 32.940900 -117.306889 154 3408ft 114kts
16-Apr-18 09:01 32.911906 -117.290497 154 3408ft 116kts
16-Apr-18 09:02 32.882848 -117.274070 154 3408ft 116kts
16-Apr-18 09:03 32.858470 -117.260284 154 3408ft 116kts
16-Apr-18 09:04 32.829300 -117.243790 154 3408ft 116kts
16-Apr-18 09:05 32.801902 -117.224306 120 3358ft 120kts
16-Apr-18 09:06 32.776649 -117.192968 142 2339ft 127kts
16-Apr-18 09:07 32.751414 -117.160817 114 1428ft 108kts
16-Apr-18 09:08 32.730817 -117.145473 224 1076ft 99kts
16-Apr-18 09:09 32.729036 -117.171443 287 399ft 62kts
16-Apr-18 09:10 32.732553 -117.185500 286 15ft 39kts
16-Apr-18 09:11 32.734103 -117.188027 17 17ft 0kts
16-Apr-18 09:12 32.733704 -117.185021 109 17ft 24kts
16-Apr-18 09:13 32.735665 -117.184270 247 17ft 0kts
16-Apr-18 09:14 32.735665 -117.184270 247 17ft 0kts
16-Apr-18 09:15 32.735665 -117.184270 247 17ft 0kts
16-Apr-18 09:16 32.735665 -117.184270 247 17ft 0kts
16-Apr-18 09:17 32.735665 -117.184270 247 17ft 0kts

Navigation Log

Ident Type
Flight plan parsing failed, navigation log unavailable